createdAt,value
2022-10-09T00:04:41.006Z,13
2022-10-09T00:33:44.183Z,16
2022-10-09T01:02:51.510Z,13
2022-10-09T01:31:45.184Z,12
2022-10-09T02:00:42.853Z,12
2022-10-09T02:29:51.827Z,11
2022-10-09T02:59:02.429Z,13
2022-10-09T03:28:04.663Z,16
2022-10-09T03:57:14.382Z,14
2022-10-09T04:26:36.044Z,17
2022-10-09T04:55:54.093Z,16
2022-10-09T05:25:04.996Z,19
2022-10-09T05:54:20.002Z,19
2022-10-09T06:23:21.182Z,21
2022-10-09T06:52:36.060Z,22
2022-10-09T07:21:48.511Z,25
2022-10-09T07:51:05.738Z,25
2022-10-09T08:20:27.148Z,25
2022-10-09T08:49:42.669Z,25
2022-10-09T09:19:10.655Z,24
2022-10-09T09:48:36.212Z,22
2022-10-09T10:18:02.768Z,19
2022-10-09T10:47:19.025Z,16
2022-10-09T11:16:53.244Z,12
2022-10-09T11:46:20.309Z,10
2022-10-09T12:15:47.280Z,10
2022-10-09T12:45:02.807Z,10
2022-10-09T13:14:09.946Z,10
2022-10-09T13:43:17.650Z,7
2022-10-09T14:12:15.403Z,9
2022-10-09T14:41:37.877Z,9
2022-10-09T15:10:16.927Z,6
2022-10-09T15:39:41.101Z,7
2022-10-09T16:08:59.950Z,7
2022-10-09T16:38:21.702Z,7
2022-10-09T17:07:41.591Z,7
2022-10-09T17:36:57.782Z,11
2022-10-09T18:06:19.822Z,10
2022-10-09T18:35:39.036Z,16
2022-10-09T19:04:59.909Z,12
2022-10-09T19:34:19.111Z,13
2022-10-09T20:03:35.730Z,10
2022-10-09T20:32:59.037Z,11
2022-10-09T21:01:38.871Z,13
2022-10-09T21:30:52.954Z,13
2022-10-09T22:00:09.132Z,11
2022-10-09T22:29:29.053Z,12
2022-10-09T22:58:45.929Z,14
2022-10-09T23:28:03.307Z,13
2022-10-09T23:57:12.961Z,14
